Terminal Aerodrome Forecast
Issued by NWS Sterling, VA

Current Version | Previous Version | Graphics & Text | Print | Product List | Glossary On
Versions: 1 2 3 4 5 6 7 8 9 10 11 12 13 14
000
FTUS41 KLWX 251700
TAFMRB
TAF
KMRB 251725Z 2518/2618 VRB03KT P6SM FEW050
     FM260300 16005KT P6SM SCT050
     FM261600 22006KT P6SM BKN120=

USA.gov is the U.S. government's official web portal to all federal, state and local government web resources and services.